METAR KFAY 192353Z 32003KT 5SM -RA BR BKN006 OVC050 02/02 A3016 RMK AO2 CIG 003V009 PRESRR SLP209 P0003 60039 T00220022 10028 20022 53012 
METAR KFAY 192253Z 02007KT 3SM -RA BR OVC006 02/02 A3012 RMK AO2 CIG 004V010 SLP197 P0003 T00220022 
METAR KFAY 192153Z 04006KT 3SM -RA BR OVC006 02/02 A3009 RMK AO2 CIG 003V010 SLP186 P0005 T00220022 
SPECI KFAY 192135Z 03006KT 2 1/2SM -RA BR OVC006 02/02 A3011 RMK AO2 CIG 003V009 P0004 
SPECI KFAY 192113Z 05006KT 3SM -RA BR BKN004 OVC009 02/02 A3011 RMK AO2 P0002 
METAR KFAY 192053Z 05005KT 2 1/2SM -RA BR BKN007 OVC032 02/02 A3012 RMK AO2 SLP197 P0008 60028 T00220022 55006 
METAR KFAY 191953Z 06006KT 2 1/2SM RA BR BKN007 BKN026 OVC060 02/02 A3012 RMK AO2 PRESFR SLP195 P0013 T00220022 
SPECI KFAY 191942Z 05005KT 2 1/2SM RA BR BKN007 BKN022 OVC055 02/02 A3015 RMK AO2 P0011 
SPECI KFAY 191927Z 02007KT 3SM -RA BR BKN007 BKN011 OVC060 03/03 A3015 RMK AO2 P0007 
SPECI KFAY 191913Z 04007KT 2 1/2SM RA BR SCT007 BKN011 OVC022 03/03 A3014 RMK AO2 P0004 
SPECI KFAY 191900Z 04008KT 3SM -RA BR BKN007 OVC013 03/03 A3013 RMK AO2 P0001 
METAR KFAY 191853Z 03010KT 2 1/2SM -RA BR BKN007 OVC013 03/03 A3014 RMK AO2 SLP202 P0007 T00280028 
METAR KFAY 191853Z 03010KT 2 1/2SM -RA BR BKN007 OVC013 03/03 A3014 RMK AO2 SLP202 P0007 T00280028 
SPECI KFAY 191810Z 04010KT 2 1/2SM -RA BR SCT006 BKN013 OVC020 03/03 A3016 RMK AO2 P0001 
SPECI KFAY 191800Z AUTO 04007KT 2 1/2SM -RA BR BKN006 OVC013 03/03 A3016 RMK AO2 P0001 TSNO 
METAR KFAY 191753Z 05008KT 2 1/2SM RA BR SCT006 OVC013 03/03 A3014 RMK AO2 PRESFR SLP204 P0010 60025 T00280028 10050 20028 58012 
SPECI KFAY 191740Z 04010KT 2 1/2SM -RA BR BKN006 BKN013 OVC025 03/03 A3017 RMK AO2 P0008 
SPECI KFAY 191725Z AUTO 03008KT 2 1/2SM -RA BR FEW008 OVC027 03/03 A3019 RMK AO2 P0006 TSNO 
SPECI KFAY 191715Z AUTO 04007KT 2 1/2SM RA BR BKN029 OVC055 03/03 A3018 RMK AO2 PRESFR P0004 TSNO 
METAR KFAY 191653Z AUTO 04007KT 3SM -RA BR FEW039 OVC055 03/03 A3020 RMK AO2 SLP223 P0010 T00330033 TSNO 
SPECI KFAY 191638Z AUTO 04007KT 4SM -RA BR SCT026 OVC050 04/03 A3020 RMK AO2 P0008 TSNO 
SPECI KFAY 191622Z AUTO 04009KT 3SM -RA BR FEW010 BKN026 OVC048 04/03 A3019 RMK AO2 P0006 TSNO 
METAR KFAY 191553Z AUTO 01007KT 4SM -RA BR OVC048 04/03 A3023 RMK AO2 PRESRR SLP232 P0003 T00440033 TSNO 
METAR KFAY 191453Z AUTO 03011KT 5SM -RA BR OVC046 04/04 A3018 RMK AO2 SLP216 P0001 60002 T00440039 56004 TSNO 
METAR KFAY 191353Z AUTO 03004KT 5SM -RA BR OVC048 04/04 A3018 RMK AO2 RAE1258B27 SLP217 P0001 T00440039 TSNO 
METAR KFAY 191253Z AUTO 02009KT 6SM -RA BR OVC048 04/03 A3016 RMK AO2 RAB10 SLP211 P0000 T00440033 TSNO 
METAR KFAY 191153Z AUTO 34004KT 7SM OVC048 04/04 A3019 RMK AO2 RAB14E46 PRESRR SLP220 P0000 60003 70004 T00440039 10044 20044 53003 TSNO 
METAR KFAY 191053Z AUTO 36003KT 7SM BKN048 OVC060 04/04 A3016 RMK AO2 RAE03 SLP208 P0000 T00440039 TSNO 
METAR KFAY 190953Z AUTO 02003KT 7SM -RA OVC048 04/03 A3017 RMK AO2 SLP212 P0001 T00440033 TSNO 
METAR KFAY 190853Z AUTO 32003KT 6SM -RA BR OVC048 04/03 A3018 RMK AO2 RAB07 SLP216 P0000 60002 T00440033 50000 TSNO 
METAR KFAY 190753Z AUTO 31004KT 8SM BKN070 OVC090 04/03 A3018 RMK AO2 RAE50 SLP216 P0001 T00440033 TSNO 
METAR KFAY 190653Z AUTO 29005KT 7SM -RA BKN070 OVC080 04/03 A3019 RMK AO2 SLP217 P0001 T00440033 TSNO 
METAR KFAY 190553Z AUTO 28004KT 7SM -RA OVC075 05/03 A3018 RMK AO2 RAB10 SLP216 P0001 60001 T00500028 10067 20050 53000 TSNO 
METAR KFAY 190453Z AUTO 27005KT 8SM BKN110 05/03 A3018 RMK AO2 PRESRR SLP215 T00500033 400780006 TSNO 
METAR KFAY 190353Z AUTO 00000KT 9SM SCT075 BKN110 05/03 A3014 RMK AO2 RAB36E47 SLP204 P0000 T00500028 TSNO 
METAR KFAY 190253Z AUTO 24004KT 10SM BKN095 05/03 A3018 RMK AO2 RAE28 SLP216 P0000 60000 T00500028 58009 TSNO 
METAR KFAY 190153Z AUTO 27005KT 10SM -RA OVC085 06/02 A3022 RMK AO2 SLP228 P0000 T00560022 TSNO 
METAR KFAY 190053Z AUTO 24003KT 10SM -RA OVC080 07/01 A3020 RMK AO2 RAB36 SLP222 P0000 T00670011 TSNO 
METAR KFAY 182353Z AUTO 25004KT 10SM OVC095 07/01 A3021 RMK AO2 SLP225 T00670006 10078 20061 53004 TSNO 
METAR KFAY 182253Z AUTO 00000KT 10SM OVC100 07/M01 A3016 RMK AO2 SLP211 T00721011 TSNO 
METAR KFAY 182153Z AUTO 26004KT 10SM CLR 07/M03 A3020 RMK AO2 SLP222 T00721028 TSNO 
METAR KFAY 182053Z AUTO 23004KT 10SM CLR 08/M04 A3019 RMK AO2 SLP221 T00781039 58003 TSNO 
METAR KFAY 181953Z AUTO 27004KT 10SM CLR 08/M04 A3021 RMK AO2 SLP224 T00781039 TSNO 
METAR KFAY 181853Z AUTO 00000KT 10SM CLR 08/M04 A3021 RMK AO2 SLP226 T00781039 TSNO 
METAR KFAY 181753Z AUTO 01005KT 10SM CLR 08/M03 A3020 RMK AO2 SLP222 T00781033 10078 20006 58029 TSNO 
METAR KFAY 181653Z AUTO 09005KT 10SM CLR 07/M04 A3025 RMK AO2 SLP237 T00671044 TSNO 
METAR KFAY 181553Z AUTO 04008KT 10SM CLR 06/M04 A3028 RMK AO2 SLP249 T00561039 TSNO 
METAR KFAY 181453Z AUTO 04008KT 10SM CLR 05/M04 A3029 RMK AO2 SLP252 T00501044 51014 TSNO 
METAR KFAY 181353Z AUTO 05009KT 10SM CLR 04/M04 A3028 RMK AO2 SLP249 T00441039 TSNO 
METAR KFAY 181253Z AUTO 03008KT 10SM CLR 02/M04 A3026 RMK AO2 SLP244 T00221039 TSNO 
METAR KFAY 181153Z AUTO 03007KT 10SM CLR 01/M04 A3025 RMK AO2 SLP239 70005 T00061039 10050 20006 53017 TSNO 
METAR KFAY 181053Z AUTO 04006KT 10SM CLR 01/M04 A3021 RMK AO2 SLP228 T00111039 TSNO 
METAR KFAY 180953Z AUTO 03009KT 10SM CLR 02/M04 A3021 RMK AO2 SLP225 T00221039 TSNO 
METAR KFAY 180853Z AUTO 03010KT 10SM CLR 03/M03 A3020 RMK AO2 SLP221 T00281033 51022 TSNO 
METAR KFAY 180753Z AUTO 02010KT 10SM CLR 04/M03 A3018 RMK AO2 SLP216 T00391028 TSNO 
METAR KFAY 180653Z AUTO 03008KT 10SM CLR 04/M01 A3017 RMK AO2 SLP211 T00391011 TSNO 
METAR KFAY 180553Z AUTO 01008KT 10SM CLR 05/01 A3013 RMK AO2 SLP199 T00500006 10089 20050 53018 TSNO 
METAR KFAY 180453Z AUTO 02009KT 10SM CLR 06/02 A3011 RMK AO2 SLP193 T00610017 401220061 TSNO 
METAR KFAY 180353Z AUTO 33006KT 10SM CLR 07/06 A3009 RMK AO2 SLP186 T00720056 TSNO 
METAR KFAY 180253Z AUTO 32006KT 5SM BR CLR 08/08 A3008 RMK AO2 SLP181 T00830078 53029 TSNO 
METAR KFAY 180153Z AUTO 29007KT 4SM BR CLR 08/08 A3005 RMK AO2 SLP171 T00830083 TSNO 
METAR KFAY 180053Z AUTO 29006KT 5SM BR CLR 08/08 A3002 RMK AO2 SLP160 T00830083 TSNO 
METAR KFAY 172353Z AUTO 27006KT 6SM BR CLR 09/09 A2999 RMK AO2 SLP152 T00890089 10122 20089 53026 TSNO 
METAR KFAY 172253Z AUTO 26005KT 8SM CLR 10/09 A2996 RMK AO2 SLP139 T01000094 TSNO 
METAR KFAY 172153Z AUTO 27006KT 10SM CLR 11/09 A2994 RMK AO2 SLP134 T01110094 TSNO 
METAR KFAY 172053Z AUTO 29008KT 10SM CLR 12/09 A2992 RMK AO2 SLP126 T01170094 53014 TSNO 
METAR KFAY 171953Z AUTO 28006KT 10SM FEW016 12/09 A2988 RMK AO2 SLP114 T01170094 TSNO 
SPECI KFAY 171942Z AUTO 30007KT 10SM BKN016 12/09 A2989 RMK AO2 TSNO 
SPECI KFAY 171935Z AUTO 30008KT 10SM SCT018 12/09 A2988 RMK AO2 TSNO 
METAR KFAY 171853Z AUTO 30007KT 10SM BKN016 12/09 A2987 RMK AO2 SLP111 T01220094 TSNO 
SPECI KFAY 171821Z AUTO 29005KT 10SM SCT014 12/10 A2988 RMK AO2 TSNO 
METAR KFAY 171753Z AUTO 29007KT 10SM BKN012 12/10 A2988 RMK AO2 SLP112 60005 T01170100 10117 20083 58012 TSNO 
SPECI KFAY 171733Z AUTO 29009KT 10SM SCT008 OVC014 12/10 A2987 RMK AO2 TSNO 
METAR KFAY 171653Z AUTO 30009KT 8SM OVC008 11/11 A2989 RMK AO2 CIG 006V012 SLP115 T01110106 TSNO 
SPECI KFAY 171622Z AUTO 29007KT 7SM OVC008 11/11 A2989 RMK AO2 CIG 006V012 TSNO 
SPECI KFAY 171611Z AUTO 28008KT 7SM BKN010 OVC016 11/10 A2990 RMK AO2 CIG 006V012 TSNO 
METAR KFAY 171553Z AUTO 29008KT 6SM BR OVC015 11/10 A2990 RMK AO2 SLP122 T01060100 TSNO 
SPECI KFAY 171504Z AUTO 29007KT 5SM BR SCT009 OVC021 10/10 A2992 RMK AO2 TSNO 
METAR KFAY 171453Z AUTO 29007KT 6SM BR BKN009 OVC021 10/10 A2991 RMK AO2 CIG 006V012 SLP123 60005 T01000100 51003 TSNO 
SPECI KFAY 171418Z AUTO 27005KT 6SM BR BKN008 BKN012 OVC031 10/10 A2991 RMK AO2 CIG 005V010 TSNO 
SPECI KFAY 171404Z AUTO 27007KT 5SM BR FEW006 OVC031 10/10 A2992 RMK AO2 TSNO 
METAR KFAY 171353Z AUTO 28005KT 5SM BR BKN033 OVC060 10/10 A2991 RMK AO2 RAE10 SLP123 P0001 T01000100 TSNO 
SPECI KFAY 171331Z AUTO 26006KT 4SM BR FEW005 BKN049 OVC060 09/09 A2990 RMK AO2 RAE10 P0001 TSNO 
SPECI KFAY 171331Z AUTO 26006KT 4SM BR FEW005 BKN049 OVC060 09/09 A2990 RMK AO2 RAE10 P0001 TSNO 
SPECI KFAY 171308Z AUTO 26005KT 3SM -RA BR SCT005 OVC027 09/09 A2990 RMK AO2 P0001 TSNO 
METAR KFAY 171253Z AUTO 26009KT 1 1/2SM -RA BR FEW005 BKN029 OVC035 09/09 A2991 RMK AO2 SLP124 P0004 T00890089 TSNO 
SPECI KFAY 171243Z AUTO 25009KT 1 3/4SM -RA BR SCT007 BKN029 OVC035 09/09 A2991 RMK AO2 P0003 TSNO 
SPECI KFAY 171229Z AUTO 23007KT 1 3/4SM -RA BR FEW008 SCT029 OVC035 08/08 A2989 RMK AO2 P0002 TSNO 
SPECI KFAY 171213Z AUTO 23009KT 2 1/2SM -RA BR FEW022 OVC029 08/08 A2990 RMK AO2 P0001 TSNO 
SPECI KFAY 171206Z AUTO 23008KT 2 1/2SM -RA BR SCT022 OVC030 08/08 A2990 RMK AO2 P0001 TSNO 
METAR KFAY 171153Z AUTO 23009KT 4SM -RA BR BKN024 OVC028 08/08 A2990 RMK AO2 RAB29 SLP120 P0000 60008 70008 T00830083 10117 20083 50004 TSNO 
METAR KFAY 171053Z AUTO 25004KT 8SM OVC023 08/08 A2990 RMK AO2 SLP121 T00830083 TSNO 
METAR KFAY 170953Z AUTO 28006KT 10SM OVC027 09/08 A2990 RMK AO2 RAE41 SLP120 P0004 T00890083 TSNO 
SPECI KFAY 170943Z AUTO 28008KT 10SM BKN027 BKN065 OVC090 09/08 A2991 RMK AO2 RAE41 PRESRR P0004 TSNO 
SPECI KFAY 170914Z AUTO 25007KT 7SM -RA SCT026 BKN034 OVC095 09/08 A2987 RMK AO2 P0004 TSNO 
METAR KFAY 170853Z AUTO 28007KT 5SM RA BR BKN026 OVC095 09/08 A2989 RMK AO2 SLP116 P0003 60004 T00890078 55002 TSNO 
METAR KFAY 170753Z AUTO 25008KT 10SM -RA SCT055 BKN080 OVC095 10/07 A2988 RMK AO2 RAB0657 SLP113 P0001 T01000072 TSNO 
METAR KFAY 170653Z AUTO 24009KT 10SM OVC090 12/05 A2989 RMK AO2 SLP116 T01170050 TSNO